Flight Track Log - Related Links

Times and Time Zones

All times are in EDT time to prevent confusion due to time zone crossing. See the RPA3392 flight status page for this flight to view local times or setup timezone preferences in your user account.


Time Position Orientation Groundspeed Altitude Reporting Facility
EDT Latitude Longitude Course Direction KTS MPH feet Rate Location/Type
Tue 10:12:18 PM 38.8833 -77.0667 90° East 169 194 1,600  Level Potomac TRACON
Tue 10:13:18 PM 38.9333 -77.1167 322° Northwest 249 287 3,700 2,374 Climbing Potomac TRACON
Tue 10:14:00 PM 38.9716 -76.6735 57° Northeast  Level FlightAware Approximate
Tue 10:15:00 PM 39.0206 -76.5549 67° East  Level FlightAware Approximate
Tue 10:15:25 PM 39.0589 -77.2008 333° Northwest 266 306 9,000  Level Washington Center
Tue 10:16:00 PM 39.0665 -76.4338 63° Northeast  Level FlightAware Approximate
Tue 10:16:25 PM 39.0872 -77.1078 69° East 196 226 11,100  Level Washington Center
Tue 10:17:00 PM 39.1167 -76.3155 90° East  Level FlightAware Approximate
Tue 10:18:26 PM 39.1044 -76.8836 84° East 277 319 15,400  Level Washington Center
Tue 10:19:26 PM 39.1119 -76.7581 86° East 316 364 17,500 1,686 Climbing Washington Center
Tue 10:20:27 PM 39.1217 -76.6217 85° East 342 394 18,800 1,736 Climbing Washington Center
Tue 10:21:27 PM 39.1311 -76.4772 85° East 383 441 21,000 2,085 Climbing Washington Center
Tue 10:22:25 PM 39.1403 -76.3303 85° East 403 464 22,900 1,017 Climbing Washington Center
Tue 10:23:25 PM 39.1536 -76.1778 84° East 422 486 23,000 50 Climbing Washington Center
Tue 10:24:26 PM 39.1772 -76.0281 78° East 422 486 23,000  Level Washington Center
Tue 10:25:28 PM 39.2006 -75.8808 78° East 422 486 23,000  Level Washington Center
Tue 10:26:25 PM 39.2758 -75.7739 48° Northeast 390 449 23,000 1,179 Level Washington Center
Tue 10:27:25 PM 39.3489 -75.6747 46° Northeast 384 442 25,300 2,016 Climbing Washington Center
Tue 10:28:27 PM 39.4303 -75.5756 43° Northeast 384 442 27,100 1,291 Climbing Washington Center
Tue 10:30:17 PM 39.5750 -75.3872 45° Northeast 406 467 29,000 671 Climbing New York Center
Tue 10:31:17 PM 39.6583 -75.2794 45° Northeast 412 474 29,000  Level New York Center
Tue 10:32:18 PM 39.7400 -75.1606 48° Northeast 419 482 29,000  Level New York Center
Tue 10:33:18 PM 39.8128 -75.0517 49° Northeast 434 499 29,000  Level New York Center
Tue 10:34:15 PM 39.8939 -74.9403 46° Northeast 434 499 29,000  Level New York Center
Tue 10:35:16 PM 39.9753 -74.8233 48° Northeast 429 494 29,000  Level New York Center
Tue 10:36:17 PM 40.0731 -74.7014 44° Northeast 429 494 29,000  Level New York Center
Tue 10:37:16 PM 40.1575 -74.6056 41° Northeast 434 499 29,000  Level New York Center
Tue 10:38:18 PM 40.2486 -74.4992 42° Northeast 434 499 29,000  Level New York Center
Tue 10:39:17 PM 40.3394 -74.3869 43° Northeast 442 509 29,000  Level New York Center
Tue 10:40:18 PM 40.4344 -74.2831 40° Northeast 436 502 29,000 -305 Level New York Center
Tue 10:42:14 PM 40.6150 -74.0694 42° Northeast 438 504 28,100 -1,125 Descending Boston Center
Tue 10:43:14 PM 40.7042 -73.9706 40° Northeast 428 493 25,700 -2,050 Descending Boston Center
Tue 10:44:14 PM 40.7908 -73.8683 42° Northeast 423 487 24,000 -850 Descending Boston Center
Tue 10:45:14 PM 40.8733 -73.7658 43° Northeast 417 480 24,000 -450 Level Boston Center
Tue 10:46:14 PM 40.9558 -73.6575 45° Northeast 411 473 23,100 -500 Descending Boston Center
Tue 10:47:14 PM 41.0506 -73.5742 34° Northeast 406 467 23,000 -250 Descending Boston Center
Tue 10:48:14 PM 41.1608 -73.5706 North 379 436 22,600 -950 Descending Boston Center
Tue 10:49:14 PM 41.2714 -73.5836 355° North 381 438 21,100 -1,300 Descending Boston Center
Tue 10:50:14 PM 41.3836 -73.5992 354° North 387 445 20,000 -850 Descending Boston Center
Tue 10:51:14 PM 41.4878 -73.6150 354° North 387 445 19,400 -1,100 Descending Boston Center
Tue 10:52:14 PM 41.6022 -73.6339 353° North 376 433 17,800 -1,600 Descending Boston Center
Tue 10:54:14 PM 41.8081 -73.6628 354° North 382 440 14,600 -1,633 Descending Boston Center
Tue 10:55:14 PM 41.8997 -73.6756 354° North 367 422 12,900 -1,600 Descending Boston Center
Tue 10:56:14 PM 42.0058 -73.6917 354° North 362 417 11,400 -1,129 Descending Boston Center
Tue 10:56:55 PM 42.0725 -73.7042 352° North 346 398 11,000 -400 Descending Boston Center
Tue 10:57:14 PM 42.1017 -73.7075 355° North 350 403 11,000  Level Boston Center
Tue 10:58:14 PM 42.1994 -73.7181 355° North 350 403 11,000  Level Boston Center
Tue 10:58:56 PM 42.2658 -73.7278 354° North 348 400 11,000  Level Boston Center
Tue 10:59:14 PM 42.2847 -73.7281 359° North 345 397 11,000 -200 Level Boston Center
Tue 10:59:56 PM 42.3617 -73.7325 358° North 347 399 10,800 -757 Descending Boston Center
Tue 11:00:57 PM 42.4472 -73.7231 North 294 338 9,700 -1,525 Descending Boston Center
Tue 11:01:58 PM 42.5328 -73.7136 North 279 321 7,700 -1,835 Descending Boston Center
Tue 11:02:58 PM 42.6081 -73.7094 North 271 312 6,000 -1,934 Descending Boston Center
Tue 11:03:59 PM 42.6831 -73.6997 North 266 306 3,800 -1,475 Descending Boston Center
Tue 11:05:00 PM 42.7561 -73.7069 356° North 257 296 3,000 -446 Descending Boston Center
Tue 11:06:00 PM 42.8142 -73.7167 353° North 193 222 2,900 -446 Descending Boston Center
Tue 11:07:01 PM 42.8178 -73.7817 274° West 164 189 2,100 -787 Descending Boston Center

Login

Don't have an account? Register now (free) for customized features, flight alerts, and more!